Time,TemperatureF,DewpointF,PressureIn,WindDirection,WindDirectionDegrees,WindSpeedMPH,WindSpeedGustMPH,Humidity,HourlyPrecipIn,Conditions,Clouds,dailyrainin,SoftwareType,DateUTC
2013-02-18 00:01:00,17.0,15.0,-100.00,NNW,330,20.0,24.0,93,-99.99,,,-99.99,,2013-02-18 07:01:00,
2013-02-18 00:11:00,16.0,15.0,-100.00,NW,325,17.0,24.0,95,-99.99,,,-99.99,,2013-02-18 07:11:00,
2013-02-18 00:21:00,16.0,16.0,-100.00,NW,310,16.0,25.0,99,-99.99,,,-99.99,,2013-02-18 07:21:00,
2013-02-18 00:32:00,17.0,17.0,-100.00,NW,310,17.0,22.0,99,-99.99,,,-99.99,,2013-02-18 07:32:00,
2013-02-18 00:42:00,16.0,16.0,-100.00,NW,310,17.0,24.0,99,-99.99,,,-99.99,,2013-02-18 07:42:00,
2013-02-18 00:51:00,16.0,16.0,-100.00,NW,315,17.0,24.0,99,-99.99,,,-99.99,,2013-02-18 07:51:00,
2013-02-18 01:01:00,16.0,16.0,-100.00,NW,305,16.0,21.0,99,-99.99,,,-99.99,,2013-02-18 08:01:00,
2013-02-18 01:11:00,16.0,16.0,-100.00,NW,310,15.0,21.0,99,-99.99,,,-99.99,,2013-02-18 08:11:00,
2013-02-18 01:21:00,16.0,16.0,-100.00,NW,305,17.0,20.0,99,-99.99,,,-99.99,,2013-02-18 08:21:00,
2013-02-18 01:32:00,16.0,16.0,-100.00,WNW,300,14.0,19.0,99,-99.99,,,-99.99,,2013-02-18 08:32:00,
2013-02-18 01:42:00,16.0,16.0,-100.00,WNW,285,17.0,22.0,99,-99.99,,,-99.99,,2013-02-18 08:42:00,
2013-02-18 01:52:00,16.0,16.0,-100.00,NW,305,18.0,27.0,99,-99.99,,,-99.99,,2013-02-18 08:52:00,
2013-02-18 02:02:00,16.0,16.0,-100.00,NW,310,18.0,24.0,99,-99.99,,,-99.99,,2013-02-18 09:02:00,
2013-02-18 02:11:00,16.0,16.0,-100.00,NW,310,17.0,24.0,99,-99.99,,,-99.99,,2013-02-18 09:11:00,
2013-02-18 02:22:00,16.0,16.0,-100.00,NW,315,18.0,22.0,99,-99.99,,,-99.99,,2013-02-18 09:22:00,
2013-02-18 02:31:00,16.0,16.0,-100.00,NW,320,16.0,20.0,99,-99.99,,,-99.99,,2013-02-18 09:31:00,
2013-02-18 02:41:00,16.0,16.0,-100.00,NW,320,14.0,19.0,99,-99.99,,,-99.99,,2013-02-18 09:41:00,
2013-02-18 02:51:00,16.0,16.0,-100.00,NW,320,16.0,22.0,99,-99.99,,,-99.99,,2013-02-18 09:51:00,
2013-02-18 03:01:00,16.0,16.0,-100.00,NW,315,14.0,22.0,99,-99.99,,,-99.99,,2013-02-18 10:01:00,
2013-02-18 03:11:00,16.0,16.0,-100.00,NW,320,22.0,27.0,99,-99.99,,,-99.99,,2013-02-18 10:11:00,
2013-02-18 03:21:00,16.0,16.0,-100.00,NW,320,17.0,26.0,99,-99.99,,,-99.99,,2013-02-18 10:21:00,
2013-02-18 03:31:00,16.0,16.0,-100.00,NW,310,16.0,24.0,99,-99.99,,,-99.99,,2013-02-18 10:31:00,
2013-02-18 03:42:00,15.0,15.0,-100.00,NW,310,16.0,22.0,99,-99.99,,,-99.99,,2013-02-18 10:42:00,
2013-02-18 03:52:00,15.0,15.0,-100.00,NW,310,17.0,24.0,99,-99.99,,,-99.99,,2013-02-18 10:52:00,
2013-02-18 04:01:00,14.0,14.0,-100.00,NW,320,16.0,22.0,99,-99.99,,,-99.99,,2013-02-18 11:01:00,
2013-02-18 04:11:00,14.0,14.0,-100.00,NW,315,18.0,24.0,99,-99.99,,,-99.99,,2013-02-18 11:11:00,
2013-02-18 04:22:00,14.0,14.0,-100.00,NW,315,17.0,24.0,99,-99.99,,,-99.99,,2013-02-18 11:22:00,
2013-02-18 04:32:00,13.0,13.0,-100.00,NW,315,17.0,22.0,99,-99.99,,,-99.99,,2013-02-18 11:32:00,
2013-02-18 04:42:00,13.0,13.0,-100.00,NW,315,14.0,22.0,99,-99.99,,,-99.99,,2013-02-18 11:42:00,
2013-02-18 04:52:00,13.0,13.0,-100.00,NW,320,13.0,20.0,99,-99.99,,,-99.99,,2013-02-18 11:52:00,
2013-02-18 05:02:00,14.0,14.0,-100.00,NW,325,21.0,26.0,99,-99.99,,,-99.99,,2013-02-18 12:02:00,
2013-02-18 05:11:00,14.0,14.0,-100.00,NW,325,20.0,26.0,99,-99.99,,,-99.99,,2013-02-18 12:11:00,
2013-02-18 05:22:00,14.0,14.0,-100.00,NNW,340,26.0,30.0,99,-99.99,,,-99.99,,2013-02-18 12:22:00,
2013-02-18 05:32:00,14.0,14.0,-100.00,NW,320,22.0,29.0,99,-99.99,,,-99.99,,2013-02-18 12:32:00,
2013-02-18 05:42:00,13.0,13.0,-100.00,NW,310,14.0,27.0,99,-99.99,,,-99.99,,2013-02-18 12:42:00,
2013-02-18 05:52:00,13.0,13.0,-100.00,NW,310,14.0,19.0,99,-99.99,,,-99.99,,2013-02-18 12:52:00,
2013-02-18 06:02:00,12.0,12.0,-100.00,NW,315,13.0,16.0,99,-99.99,,,-99.99,,2013-02-18 13:02:00,
2013-02-18 06:12:00,12.0,12.0,-100.00,WNW,300,11.0,17.0,99,-99.99,,,-99.99,,2013-02-18 13:12:00,
2013-02-18 06:22:00,12.0,12.0,-100.00,NW,305,10.0,17.0,99,-99.99,,,-99.99,,2013-02-18 13:22:00,
2013-02-18 06:32:00,13.0,13.0,-100.00,WNW,285,16.0,19.0,99,-99.99,,,-99.99,,2013-02-18 13:32:00,
2013-02-18 06:42:00,12.0,12.0,-100.00,West,280,17.0,22.0,99,-99.99,,,-99.99,,2013-02-18 13:42:00,
2013-02-18 06:52:00,13.0,10.0,-100.00,WNW,295,19.0,26.0,91,-99.99,,,-99.99,,2013-02-18 13:52:00,
2013-02-18 07:02:00,13.0,10.0,-100.00,WNW,290,19.0,27.0,86,-99.99,,,-99.99,,2013-02-18 14:02:00,
2013-02-18 07:11:00,14.0,10.0,-100.00,WNW,295,21.0,26.0,83,-99.99,,,-99.99,,2013-02-18 14:11:00,
2013-02-18 07:22:00,15.0,10.0,-100.00,WNW,285,17.0,24.0,82,-99.99,,,-99.99,,2013-02-18 14:22:00,
2013-02-18 07:33:00,15.0,10.0,-100.00,WNW,290,17.0,23.0,82,-99.99,,,-99.99,,2013-02-18 14:33:00,
2013-02-18 07:53:00,15.0,11.0,-100.00,NW,305,17.0,22.0,82,-99.99,,,-99.99,,2013-02-18 14:53:00,
2013-02-18 08:02:00,16.0,11.0,-100.00,WNW,300,17.0,23.0,82,-99.99,,,-99.99,,2013-02-18 15:02:00,
2013-02-18 08:11:00,16.0,11.0,-100.00,WNW,295,16.0,22.0,81,-99.99,,,-99.99,,2013-02-18 15:11:00,
2013-02-18 08:22:00,17.0,12.0,-100.00,NW,310,12.0,19.0,79,-99.99,,,-99.99,,2013-02-18 15:22:00,
2013-02-18 08:32:00,17.0,12.0,-100.00,WNW,300,12.0,16.0,78,-99.99,,,-99.99,,2013-02-18 15:32:00,
2013-02-18 08:42:00,18.0,13.0,-100.00,NW,305,9.0,16.0,78,-99.99,,,-99.99,,2013-02-18 15:42:00,
2013-02-18 08:52:00,17.0,11.0,-100.00,West,265,14.0,19.0,77,-99.99,,,-99.99,,2013-02-18 15:52:00,
2013-02-18 09:12:00,16.0,10.0,-100.00,WSW,255,16.0,21.0,76,-99.99,,,-99.99,,2013-02-18 16:12:00,
2013-02-18 09:22:00,16.0,10.0,-100.00,WSW,255,12.0,19.0,77,-99.99,,,-99.99,,2013-02-18 16:22:00,
2013-02-18 09:32:00,16.0,10.0,-100.00,WSW,240,15.0,18.0,78,-99.99,,,-99.99,,2013-02-18 16:32:00,
2013-02-18 09:42:00,16.0,11.0,-100.00,WSW,245,13.0,19.0,79,-99.99,,,-99.99,,2013-02-18 16:42:00,
2013-02-18 09:52:00,17.0,11.0,-100.00,West,260,16.0,20.0,77,-99.99,,,-99.99,,2013-02-18 16:52:00,
2013-02-18 10:03:00,17.0,10.0,-100.00,WSW,250,21.0,26.0,76,-99.99,,,-99.99,,2013-02-18 17:03:00,
2013-02-18 10:12:00,17.0,11.0,-100.00,WSW,255,17.0,26.0,76,-99.99,,,-99.99,,2013-02-18 17:12:00,
2013-02-18 10:22:00,17.0,11.0,-100.00,West,265,16.0,24.0,77,-99.99,,,-99.99,,2013-02-18 17:22:00,
2013-02-18 10:32:00,18.0,11.0,-100.00,West,265,18.0,27.0,75,-99.99,,,-99.99,,2013-02-18 17:32:00,
2013-02-18 10:42:00,18.0,11.0,-100.00,West,265,15.0,20.0,74,-99.99,,,-99.99,,2013-02-18 17:42:00,
2013-02-18 10:52:00,19.0,11.0,-100.00,West,265,19.0,25.0,72,-99.99,,,-99.99,,2013-02-18 17:52:00,
2013-02-18 11:02:00,19.0,11.0,-100.00,West,265,24.0,32.0,70,-99.99,,,-99.99,,2013-02-18 18:02:00,
2013-02-18 11:12:00,19.0,11.0,-100.00,West,265,24.0,32.0,70,-99.99,,,-99.99,,2013-02-18 18:12:00,
2013-02-18 11:22:00,20.0,12.0,-100.00,West,270,24.0,31.0,72,-99.99,,,-99.99,,2013-02-18 18:22:00,
2013-02-18 11:32:00,19.0,10.0,-100.00,West,275,25.0,32.0,67,-99.99,,,-99.99,,2013-02-18 18:32:00,
2013-02-18 11:42:00,18.0,9.0,-100.00,WNW,285,22.0,30.0,66,-99.99,,,-99.99,,2013-02-18 18:42:00,
2013-02-18 11:52:00,19.0,9.0,-100.00,West,280,23.0,32.0,63,-99.99,,,-99.99,,2013-02-18 18:52:00,
2013-02-18 12:02:00,19.0,9.0,-100.00,WNW,290,26.0,33.0,63,-99.99,,,-99.99,,2013-02-18 19:02:00,
2013-02-18 12:12:00,19.0,9.0,-100.00,WNW,290,24.0,33.0,64,-99.99,,,-99.99,,2013-02-18 19:12:00,
2013-02-18 12:22:00,20.0,9.0,-100.00,West,280,25.0,31.0,63,-99.99,,,-99.99,,2013-02-18 19:22:00,
2013-02-18 12:33:00,19.0,9.0,-100.00,West,280,24.0,34.0,63,-99.99,,,-99.99,,2013-02-18 19:33:00,
2013-02-18 12:42:00,19.0,8.0,-100.00,WNW,295,24.0,30.0,62,-99.99,,,-99.99,,2013-02-18 19:42:00,
2013-02-18 12:52:00,19.0,9.0,-100.00,NW,310,21.0,28.0,64,-99.99,,,-99.99,,2013-02-18 19:52:00,
2013-02-18 13:02:00,19.0,10.0,-100.00,NW,315,19.0,30.0,67,-99.99,,,-99.99,,2013-02-18 20:02:00,
2013-02-18 13:12:00,19.0,10.0,-100.00,NW,305,20.0,30.0,66,-99.99,,,-99.99,,2013-02-18 20:12:00,
2013-02-18 13:22:00,20.0,8.0,-100.00,WNW,290,25.0,32.0,60,-99.99,,,-99.99,,2013-02-18 20:22:00,
2013-02-18 13:33:00,20.0,8.0,-100.00,WNW,285,26.0,36.0,57,-99.99,,,-99.99,,2013-02-18 20:33:00,
2013-02-18 13:42:00,20.0,7.0,-100.00,WNW,285,26.0,36.0,57,-99.99,,,-99.99,,2013-02-18 20:42:00,
2013-02-18 13:52:00,18.0,8.0,-100.00,WNW,290,29.0,35.0,63,-99.99,,,-99.99,,2013-02-18 20:52:00,
2013-02-18 14:03:00,18.0,8.0,-100.00,WNW,290,30.0,40.0,64,-99.99,,,-99.99,,2013-02-18 21:03:00,
2013-02-18 14:12:00,19.0,9.0,-100.00,NW,305,25.0,35.0,64,-99.99,,,-99.99,,2013-02-18 21:12:00,
2013-02-18 14:22:00,19.0,8.0,-100.00,NW,305,26.0,35.0,62,-99.99,,,-99.99,,2013-02-18 21:22:00,
2013-02-18 14:32:00,19.0,10.0,-100.00,NW,305,21.0,32.0,66,-99.99,,,-99.99,,2013-02-18 21:32:00,
2013-02-18 14:42:00,18.0,8.0,-100.00,WNW,300,25.0,34.0,62,-99.99,,,-99.99,,2013-02-18 21:42:00,
2013-02-18 14:52:00,18.0,8.0,-100.00,NW,315,25.0,37.0,64,-99.99,,,-99.99,,2013-02-18 21:52:00,
2013-02-18 15:02:00,18.0,8.0,-100.00,NW,310,26.0,34.0,63,-99.99,,,-99.99,,2013-02-18 22:02:00,
2013-02-18 15:12:00,18.0,8.0,-100.00,NW,315,24.0,32.0,64,-99.99,,,-99.99,,2013-02-18 22:12:00,
2013-02-18 15:22:00,19.0,8.0,-100.00,NW,310,22.0,30.0,62,-99.99,,,-99.99,,2013-02-18 22:22:00,
2013-02-18 15:33:00,19.0,8.0,-100.00,NW,305,21.0,31.0,61,-99.99,,,-99.99,,2013-02-18 22:33:00,
2013-02-18 15:42:00,19.0,7.0,-100.00,NW,310,21.0,32.0,59,-99.99,,,-99.99,,2013-02-18 22:42:00,
2013-02-18 15:52:00,20.0,7.0,-100.00,West,280,20.0,27.0,57,-99.99,,,-99.99,,2013-02-18 22:52:00,
2013-02-18 16:02:00,20.0,6.0,-100.00,WNW,290,22.0,34.0,55,-99.99,,,-99.99,,2013-02-18 23:02:00,
2013-02-18 16:12:00,19.0,6.0,-100.00,WNW,295,21.0,32.0,54,-99.99,,,-99.99,,2013-02-18 23:12:00,
2013-02-18 16:22:00,20.0,6.0,-100.00,West,270,26.0,32.0,55,-99.99,,,-99.99,,2013-02-18 23:22:00,
2013-02-18 16:33:00,20.0,8.0,-100.00,West,275,24.0,35.0,59,-99.99,,,-99.99,,2013-02-18 23:33:00,
2013-02-18 16:42:00,19.0,7.0,-100.00,West,280,24.0,37.0,59,-99.99,,,-99.99,,2013-02-18 23:42:00,
2013-02-18 16:52:00,19.0,8.0,-100.00,WNW,290,26.0,35.0,60,-99.99,,,-99.99,,2013-02-18 23:52:00,
2013-02-18 17:02:00,19.0,7.0,-100.00,WNW,290,27.0,35.0,59,-99.99,,,-99.99,,2013-02-19 00:02:00,
2013-02-18 17:12:00,19.0,7.0,-100.00,WNW,285,28.0,35.0,59,-99.99,,,-99.99,,2013-02-19 00:12:00,
2013-02-18 17:22:00,18.0,7.0,-100.00,WNW,295,26.0,36.0,60,-99.99,,,-99.99,,2013-02-19 00:22:00,
2013-02-18 17:34:00,18.0,7.0,-100.00,WNW,300,26.0,37.0,61,-99.99,,,-99.99,,2013-02-19 00:34:00,
2013-02-18 17:42:00,17.0,7.0,-100.00,WNW,300,24.0,34.0,63,-99.99,,,-99.99,,2013-02-19 00:42:00,
2013-02-18 17:53:00,17.0,7.0,-100.00,WNW,290,25.0,32.0,65,-99.99,,,-99.99,,2013-02-19 00:53:00,
2013-02-18 18:03:00,16.0,7.0,-100.00,WNW,290,24.0,34.0,67,-99.99,,,-99.99,,2013-02-19 01:03:00,
2013-02-18 18:13:00,16.0,7.0,-100.00,WNW,295,26.0,32.0,67,-99.99,,,-99.99,,2013-02-19 01:13:00,
2013-02-18 18:23:00,16.0,7.0,-100.00,WNW,285,26.0,33.0,67,-99.99,,,-99.99,,2013-02-19 01:23:00,
2013-02-18 18:34:00,15.0,7.0,-100.00,WNW,290,24.0,34.0,67,-99.99,,,-99.99,,2013-02-19 01:34:00,
2013-02-18 18:43:00,15.0,7.0,-100.00,WNW,290,23.0,28.0,68,-99.99,,,-99.99,,2013-02-19 01:43:00,
2013-02-18 18:53:00,15.0,6.0,-100.00,WNW,295,21.0,30.0,68,-99.99,,,-99.99,,2013-02-19 01:53:00,
2013-02-18 19:03:00,15.0,6.0,-100.00,WNW,295,22.0,28.0,68,-99.99,,,-99.99,,2013-02-19 02:03:00,
2013-02-18 19:13:00,14.0,6.0,-100.00,WNW,285,20.0,28.0,69,-99.99,,,-99.99,,2013-02-19 02:13:00,
2013-02-18 19:22:00,14.0,5.0,-100.00,West,280,16.0,26.0,68,-99.99,,,-99.99,,2013-02-19 02:22:00,
2013-02-18 19:34:00,13.0,5.0,-100.00,West,280,14.0,22.0,66,-99.99,,,-99.99,,2013-02-19 02:34:00,
2013-02-18 19:42:00,13.0,4.0,-100.00,West,280,14.0,18.0,65,-99.99,,,-99.99,,2013-02-19 02:42:00,
2013-02-18 19:53:00,12.0,3.0,-100.00,WNW,285,13.0,18.0,66,-99.99,,,-99.99,,2013-02-19 02:53:00,
2013-02-18 20:06:00,11.0,3.0,-100.00,West,280,11.0,16.0,67,-99.99,,,-99.99,,2013-02-19 03:06:00,
2013-02-18 20:13:00,10.0,2.0,-100.00,WNW,285,9.0,13.0,68,-99.99,,,-99.99,,2013-02-19 03:13:00,
2013-02-18 20:23:00,11.0,2.0,-100.00,West,280,10.0,13.0,67,-99.99,,,-99.99,,2013-02-19 03:23:00,
2013-02-18 20:34:00,11.0,2.0,-100.00,West,280,9.0,15.0,65,-99.99,,,-99.99,,2013-02-19 03:34:00,
2013-02-18 20:43:00,11.0,2.0,-100.00,WNW,290,7.0,12.0,64,-99.99,,,-99.99,,2013-02-19 03:43:00,
2013-02-18 20:52:00,11.0,1.0,-100.00,WNW,295,8.0,9.0,63,-99.99,,,-99.99,,2013-02-19 03:52:00,
2013-02-18 21:02:00,11.0,1.0,-100.00,WNW,300,9.0,11.0,63,-99.99,,,-99.99,,2013-02-19 04:02:00,
2013-02-18 21:13:00,11.0,1.0,-100.00,WNW,300,9.0,12.0,63,-99.99,,,-99.99,,2013-02-19 04:13:00,
2013-02-18 21:22:00,11.0,1.0,-100.00,WNW,300,10.0,13.0,63,-99.99,,,-99.99,,2013-02-19 04:22:00,
2013-02-18 21:33:00,11.0,1.0,-100.00,WNW,290,9.0,12.0,63,-99.99,,,-99.99,,2013-02-19 04:33:00,
2013-02-18 21:43:00,11.0,1.0,-100.00,WNW,290,7.0,12.0,63,-99.99,,,-99.99,,2013-02-19 04:43:00,
2013-02-18 21:52:00,11.0,1.0,-100.00,West,280,7.0,9.0,63,-99.99,,,-99.99,,2013-02-19 04:52:00,
2013-02-18 22:02:00,13.0,2.0,-100.00,WNW,290,7.0,9.0,60,-99.99,,,-99.99,,2013-02-19 05:02:00,
2013-02-18 22:12:00,13.0,2.0,-100.00,WNW,300,7.0,9.0,60,-99.99,,,-99.99,,2013-02-19 05:12:00,
2013-02-18 22:22:00,12.0,1.0,-100.00,North,350,4.0,7.0,60,-99.99,,,-99.99,,2013-02-19 05:22:00,
2013-02-18 22:32:00,11.0,0.0,-100.00,North,350,5.0,7.0,61,-99.99,,,-99.99,,2013-02-19 05:32:00,
2013-02-18 22:43:00,10.0,0.0,-100.00,WSW,250,2.0,4.0,63,-99.99,,,-99.99,,2013-02-19 05:43:00,
2013-02-18 22:52:00,15.0,2.0,-100.00,SW,235,4.0,5.0,54,-99.99,,,-99.99,,2013-02-19 05:52:00,
2013-02-18 23:02:00,17.0,1.0,-100.00,SW,220,4.0,5.0,48,-99.99,,,-99.99,,2013-02-19 06:02:00,
2013-02-18 23:11:00,16.0,0.0,-100.00,SSW,200,3.0,7.0,48,-99.99,,,-99.99,,2013-02-19 06:11:00,
2013-02-18 23:21:00,15.0,-1.0,-100.00,South,190,4.0,6.0,47,-99.99,,,-99.99,,2013-02-19 06:21:00,
2013-02-18 23:32:00,14.0,-2.0,-100.00,SSE,160,2.0,4.0,47,-99.99,,,-99.99,,2013-02-19 06:32:00,
2013-02-18 23:42:00,14.0,-2.0,-100.00,South,175,2.0,3.0,48,-99.99,,,-99.99,,2013-02-19 06:42:00,
2013-02-18 23:52:00,13.0,-2.0,-100.00,South,180,3.0,4.0,48,-99.99,,,-99.99,,2013-02-19 06:52:00,